createdAt,value
2024-04-24T00:00:35.000Z,4.8
2024-04-24T00:02:45.670Z,4.7
2024-04-24T00:04:56.000Z,5
2024-04-24T00:07:05.000Z,5.3
2024-04-24T00:09:16.168Z,5.2
2024-04-24T00:11:27.000Z,5.1
2024-04-24T00:13:36.497Z,4.8
2024-04-24T00:15:46.000Z,5
2024-04-24T00:17:55.849Z,4.6
2024-04-24T00:20:06.000Z,4.9
2024-04-24T00:22:16.180Z,4.8
2024-04-24T00:24:26.355Z,5.1
2024-04-24T00:26:36.522Z,5
2024-04-24T00:28:47.000Z,4.9
2024-04-24T00:30:57.000Z,5.4
2024-04-24T00:33:06.692Z,4.9
2024-04-24T00:35:17.188Z,4.6
2024-04-24T00:37:27.357Z,5.1
2024-04-24T00:39:37.529Z,5.3
2024-04-24T00:41:47.693Z,5.3
2024-04-24T00:43:57.000Z,5.1
2024-04-24T00:46:07.000Z,5.3
2024-04-24T00:48:18.000Z,4.8
2024-04-24T00:50:27.385Z,5.2
2024-04-24T00:52:37.553Z,4.9
2024-04-24T00:54:47.730Z,4.7
2024-04-24T00:56:58.000Z,4.8
2024-04-24T00:59:07.727Z,4.9
2024-04-24T01:01:18.228Z,5
2024-04-24T01:03:28.060Z,4.9
2024-04-24T01:05:38.561Z,4.6
2024-04-24T01:07:49.000Z,4.9
2024-04-24T01:09:58.562Z,4.5
2024-04-24T01:12:09.000Z,4.9
2024-04-24T01:14:18.246Z,5.1
2024-04-24T01:16:29.000Z,5.4
2024-04-24T01:18:38.578Z,4.9
2024-04-24T01:20:48.752Z,5.2
2024-04-24T01:22:58.000Z,4.8
2024-04-24T01:25:09.000Z,5.2
2024-04-24T01:27:17.941Z,5
2024-04-24T01:29:28.440Z,4.6
2024-04-24T01:31:38.605Z,4.8
2024-04-24T01:33:48.768Z,4.9
2024-04-24T01:35:58.940Z,5.1
2024-04-24T01:38:08.771Z,5
2024-04-24T01:40:19.270Z,5
2024-04-24T01:42:29.437Z,4.8
2024-04-24T01:44:39.607Z,4.7
2024-04-24T01:46:49.780Z,4.9
2024-04-24T01:49:00.000Z,4.8
2024-04-24T01:51:10.112Z,5
2024-04-24T01:53:20.000Z,5.3
2024-04-24T01:55:29.124Z,4.7
2024-04-24T01:57:40.000Z,5.2
2024-04-24T01:59:49.798Z,5.1
2024-04-24T02:02:00.000Z,5
2024-04-24T02:04:10.140Z,5.1
2024-04-24T02:06:21.000Z,5
2024-04-24T02:08:31.000Z,5
2024-04-24T02:10:41.000Z,4.9
2024-04-24T02:12:51.000Z,5.1
2024-04-24T02:15:00.983Z,5
2024-04-24T02:17:12.000Z,5.5
2024-04-24T02:19:22.000Z,4.9
2024-04-24T02:21:30.499Z,5.1
2024-04-24T02:23:41.000Z,5
2024-04-24T02:25:50.838Z,4.8
2024-04-24T02:28:01.005Z,5.5
2024-04-24T02:30:12.000Z,4.8
2024-04-24T02:32:22.000Z,5.1
2024-04-24T02:34:31.519Z,5.2
2024-04-24T02:36:41.681Z,4.9
2024-04-24T02:38:52.000Z,4.9
2024-04-24T02:41:02.000Z,5
2024-04-24T02:43:12.186Z,5.2
2024-04-24T02:45:22.355Z,5.2
2024-04-24T02:47:32.527Z,5.3
2024-04-24T02:49:41.707Z,4.8
2024-04-24T02:51:52.000Z,5
2024-04-24T02:54:01.694Z,5.4
2024-04-24T02:56:12.213Z,4.9
2024-04-24T02:58:23.000Z,5
2024-04-24T03:00:33.000Z,4.6
2024-04-24T03:02:42.707Z,4.8
2024-04-24T03:04:52.872Z,5.1
2024-04-24T03:07:03.034Z,5.1
2024-04-24T03:09:13.202Z,5.2
2024-04-24T03:11:23.042Z,4.9
2024-04-24T03:13:33.538Z,5.3
2024-04-24T03:15:43.705Z,5
2024-04-24T03:17:52.889Z,4.8
2024-04-24T03:20:03.064Z,4.9
2024-04-24T03:22:12.896Z,4.8
2024-04-24T03:24:23.399Z,5.1
2024-04-24T03:26:33.570Z,5
2024-04-24T03:28:44.000Z,5.1
2024-04-24T03:30:53.902Z,5
2024-04-24T03:33:04.070Z,5.2
2024-04-24T03:35:14.236Z,4.7
2024-04-24T03:37:24.405Z,5
2024-04-24T03:39:34.578Z,4.9
2024-04-24T03:41:45.000Z,4.9
2024-04-24T03:43:54.575Z,4.8
2024-04-24T03:46:04.096Z,4.8
2024-04-24T03:48:15.000Z,5
2024-04-24T03:50:25.000Z,5.1
2024-04-24T03:52:34.601Z,4.8
2024-04-24T03:54:44.772Z,6.3
2024-04-24T03:56:54.936Z,5.2
2024-04-24T03:59:05.113Z,4.9
2024-04-24T04:01:16.000Z,5
2024-04-24T04:03:26.000Z,5.2
2024-04-24T04:05:35.612Z,5
2024-04-24T04:07:46.000Z,5.1
2024-04-24T04:09:55.952Z,4.8
2024-04-24T04:12:07.000Z,5.1
2024-04-24T04:14:16.000Z,4.9
2024-04-24T04:16:26.000Z,5.1
2024-04-24T04:18:35.641Z,5.2
2024-04-24T04:20:45.802Z,5.2
2024-04-24T04:22:55.970Z,5
2024-04-24T04:25:07.000Z,5.2
2024-04-24T04:27:16.313Z,5.1
2024-04-24T04:29:26.478Z,5.8
2024-04-24T04:31:36.644Z,5.4
2024-04-24T04:33:46.812Z,5
2024-04-24T04:35:56.984Z,5
2024-04-24T04:38:07.157Z,5
2024-04-24T04:40:17.327Z,4.9
2024-04-24T04:42:26.509Z,5.7
2024-04-24T04:44:37.000Z,5.5
2024-04-24T04:46:46.836Z,5.4
2024-04-24T04:48:57.010Z,5
2024-04-24T04:51:07.171Z,5.1
2024-04-24T04:53:17.336Z,5.2
2024-04-24T04:55:27.510Z,5.3
2024-04-24T04:57:37.680Z,4.9
2024-04-24T04:59:47.848Z,5.6
2024-04-24T05:01:58.014Z,7.9
2024-04-24T05:04:08.182Z,8
2024-04-24T05:06:19.000Z,8.2
2024-04-24T05:08:28.522Z,8.1
2024-04-24T05:10:37.700Z,8.2
2024-04-24T05:12:48.000Z,7.8
2024-04-24T05:14:58.033Z,7.8
2024-04-24T05:17:07.863Z,8.3
2024-04-24T05:19:18.371Z,8
2024-04-24T05:21:28.536Z,7.5
2024-04-24T05:23:39.000Z,7.7
2024-04-24T05:25:48.519Z,7.6
2024-04-24T05:27:58.691Z,7.4
2024-04-24T05:30:10.000Z,7.5
2024-04-24T05:32:19.379Z,7.4
2024-04-24T05:34:29.548Z,7.3
2024-04-24T05:36:39.364Z,7.4
2024-04-24T05:38:48.902Z,7.3
2024-04-24T05:40:58.717Z,7.2
2024-04-24T05:43:10.000Z,7.4
2024-04-24T05:45:20.000Z,7.5
2024-04-24T05:47:29.578Z,6.8
2024-04-24T05:49:40.000Z,7.2
2024-04-24T05:51:49.905Z,6.8
2024-04-24T05:53:59.718Z,6.9
2024-04-24T05:56:11.000Z,6.7
2024-04-24T05:58:20.410Z,6.5
2024-04-24T06:00:30.220Z,7.1
2024-04-24T06:02:40.740Z,6.5
2024-04-24T06:04:50.909Z,6.4
2024-04-24T06:07:00.096Z,6.4
2024-04-24T06:09:10.266Z,8.7
2024-04-24T06:11:21.000Z,8.1
2024-04-24T06:13:30.598Z,7.1
2024-04-24T06:15:41.000Z,7.9
2024-04-24T06:17:50.936Z,7.5
2024-04-24T06:20:01.102Z,7.9
2024-04-24T06:22:11.267Z,7
2024-04-24T06:24:22.000Z,7.2
2024-04-24T06:26:31.601Z,7.3
2024-04-24T06:28:41.770Z,6.6
2024-04-24T06:30:51.935Z,7.8
2024-04-24T06:33:03.000Z,7
2024-04-24T06:35:10.932Z,7.3
2024-04-24T06:37:21.462Z,8
2024-04-24T06:39:31.631Z,6.9
2024-04-24T06:41:41.438Z,6.7
2024-04-24T06:43:51.966Z,6.7
2024-04-24T06:46:01.779Z,6.8
2024-04-24T06:48:12.295Z,7.3
2024-04-24T06:50:22.107Z,7.3
2024-04-24T06:52:33.000Z,5.9
2024-04-24T06:54:42.797Z,6.4
2024-04-24T06:56:52.973Z,7.2
2024-04-24T06:59:04.000Z,6.9
2024-04-24T07:01:12.947Z,7.7
2024-04-24T07:03:23.000Z,6.3
2024-04-24T07:05:32.675Z,7.3
2024-04-24T07:07:42.846Z,6.8
2024-04-24T07:09:53.014Z,6.9
2024-04-24T07:12:04.000Z,6.9
2024-04-24T07:14:13.352Z,6.2
2024-04-24T07:16:24.000Z,6.4
2024-04-24T07:18:33.683Z,6.5
2024-04-24T07:20:44.000Z,5.9
2024-04-24T07:22:53.639Z,6.7
2024-04-24T07:25:04.187Z,6.2
2024-04-24T07:27:15.000Z,6.9
2024-04-24T07:29:24.525Z,6.8
2024-04-24T07:31:33.712Z,6.7
2024-04-24T07:33:43.872Z,6.4
2024-04-24T07:35:53.655Z,6.4
2024-04-24T07:38:03.829Z,6.1
2024-04-24T07:40:14.381Z,6.7
2024-04-24T07:42:24.554Z,5.8
2024-04-24T07:44:34.720Z,6.9
2024-04-24T07:46:44.888Z,6.9
2024-04-24T07:48:54.666Z,6.9
2024-04-24T07:51:05.217Z,6.3
2024-04-24T07:53:16.000Z,6.2
2024-04-24T07:55:25.552Z,6.5
2024-04-24T07:57:35.725Z,7
2024-04-24T07:59:44.520Z,6.5
2024-04-24T08:01:55.065Z,6.3
2024-04-24T08:04:04.853Z,6.2
2024-04-24T08:06:15.387Z,6.6
2024-04-24T08:08:25.550Z,6.1
2024-04-24T08:10:35.721Z,6.6
2024-04-24T08:12:45.884Z,5.6
2024-04-24T08:14:57.000Z,6.4
2024-04-24T08:17:05.861Z,5.8
2024-04-24T08:19:16.387Z,6.3
2024-04-24T08:21:27.000Z,6.5
2024-04-24T08:23:37.000Z,6.9
2024-04-24T08:25:46.894Z,5.9
2024-04-24T08:27:55.711Z,6
2024-04-24T08:30:05.885Z,5.9
2024-04-24T08:32:16.411Z,6.5
2024-04-24T08:34:26.579Z,6.4
2024-04-24T08:36:36.748Z,5.6
2024-04-24T08:38:46.552Z,6.2
2024-04-24T08:40:55.738Z,5.5
2024-04-24T08:43:06.267Z,6.4
2024-04-24T08:45:16.435Z,5.7
2024-04-24T08:47:26.602Z,5.7
2024-04-24T08:49:36.771Z,5.2
2024-04-24T08:51:46.573Z,5.5
2024-04-24T08:53:58.000Z,5.9
2024-04-24T08:56:06.912Z,5.7
2024-04-24T08:58:18.000Z,5.9
2024-04-24T09:00:27.614Z,5.5
2024-04-24T09:02:37.777Z,5.6
2024-04-24T09:04:47.943Z,5.8
2024-04-24T09:06:58.114Z,5.2
2024-04-24T09:09:06.929Z,5.3
2024-04-24T09:11:18.000Z,5.6
2024-04-24T09:13:27.270Z,5.4
2024-04-24T09:15:38.000Z,5.2
2024-04-24T09:17:47.960Z,5.5
2024-04-24T09:19:57.767Z,5.2
2024-04-24T09:22:08.302Z,5.3
2024-04-24T09:24:18.098Z,5.3
2024-04-24T09:26:28.266Z,5
2024-04-24T09:28:38.806Z,5.5
2024-04-24T09:30:48.968Z,5.3
2024-04-24T09:32:59.131Z,4.9
2024-04-24T09:35:10.000Z,5.1
2024-04-24T09:37:18.481Z,5.2
2024-04-24T09:39:28.651Z,5
2024-04-24T09:41:38.817Z,5.9
2024-04-24T09:43:48.985Z,5.9
2024-04-24T09:45:59.152Z,4.8
2024-04-24T09:48:09.320Z,5.2
2024-04-24T09:50:19.487Z,5.1
2024-04-24T09:52:30.000Z,5.3
2024-04-24T09:54:39.827Z,5.5
2024-04-24T09:56:49.997Z,5.6
2024-04-24T09:59:01.000Z,4.7
2024-04-24T10:01:10.320Z,4.9
2024-04-24T10:03:20.503Z,5
2024-04-24T10:05:29.305Z,5.2
2024-04-24T10:07:39.861Z,5.2
2024-04-24T10:09:50.029Z,5.5
2024-04-24T10:11:59.807Z,4.8
2024-04-24T10:14:10.359Z,5.3
2024-04-24T10:16:20.140Z,4.9
2024-04-24T10:18:30.703Z,5.1
2024-04-24T10:20:40.868Z,4.8
2024-04-24T10:22:51.000Z,4.8
2024-04-24T10:25:02.000Z,5
2024-04-24T10:27:10.977Z,4.6
2024-04-24T10:29:21.531Z,4.6
2024-04-24T10:31:31.707Z,4.4
2024-04-24T10:33:40.495Z,4.9
2024-04-24T10:35:51.054Z,4.9
2024-04-24T10:38:02.000Z,5.1
2024-04-24T10:40:11.383Z,4.9
2024-04-24T10:42:21.553Z,5.5
2024-04-24T10:44:31.722Z,4.8
2024-04-24T10:46:41.890Z,4.8
2024-04-24T10:48:52.000Z,4.7
2024-04-24T10:51:03.000Z,5.1
2024-04-24T10:53:13.000Z,5.3
2024-04-24T10:55:22.561Z,4.9
2024-04-24T10:57:32.726Z,5
2024-04-24T10:59:42.891Z,4.5
2024-04-24T11:01:52.069Z,4.5
2024-04-24T11:04:02.226Z,5.3
2024-04-24T11:06:12.385Z,4.9
2024-04-24T11:08:22.549Z,4.7
2024-04-24T11:10:32.717Z,4.7
2024-04-24T11:12:42.889Z,4.5
2024-04-24T11:14:54.000Z,4.3
2024-04-24T11:17:04.000Z,4.7
2024-04-24T11:19:13.395Z,4.4
2024-04-24T11:21:24.000Z,4.2
2024-04-24T11:23:34.000Z,3.9
2024-04-24T11:25:43.520Z,4.4
2024-04-24T11:27:54.059Z,4.3
2024-04-24T11:30:02.876Z,4.4
2024-04-24T11:32:14.000Z,4.6
2024-04-24T11:34:23.581Z,3.9
2024-04-24T11:36:33.753Z,4.2
2024-04-24T11:38:43.916Z,3.7
2024-04-24T11:40:54.081Z,4
2024-04-24T11:43:04.247Z,4.4
2024-04-24T11:45:14.413Z,3.8
2024-04-24T11:47:24.583Z,4.3
2024-04-24T11:49:34.748Z,3.7
2024-04-24T11:51:44.917Z,4.1
2024-04-24T11:53:55.084Z,3.9
2024-04-24T11:56:05.255Z,4.1
2024-04-24T11:58:14.440Z,3.7
2024-04-24T12:00:24.612Z,4.3
2024-04-24T12:02:34.773Z,3.8
2024-04-24T12:04:44.939Z,4.4
2024-04-24T12:06:54.732Z,4.2
2024-04-24T12:09:05.282Z,4.5
2024-04-24T12:11:15.067Z,4.8
2024-04-24T12:13:25.234Z,4.3
2024-04-24T12:15:36.000Z,4.5
2024-04-24T12:17:46.000Z,4.2
2024-04-24T12:19:57.000Z,5
2024-04-24T12:22:06.282Z,4.5
2024-04-24T12:24:16.446Z,4.8
2024-04-24T12:26:25.632Z,4.5
2024-04-24T12:28:35.796Z,5
2024-04-24T12:30:45.966Z,5.1
2024-04-24T12:32:56.134Z,5.3
2024-04-24T12:35:06.301Z,5.2
2024-04-24T12:37:16.089Z,4.8
2024-04-24T12:39:27.000Z,4.6
2024-04-24T12:41:36.812Z,4.6
2024-04-24T12:43:46.970Z,5.2
2024-04-24T12:45:58.000Z,4.2
2024-04-24T12:48:07.312Z,4.5
2024-04-24T12:50:17.089Z,4.7
2024-04-24T12:52:27.639Z,5.2
2024-04-24T12:54:36.828Z,4.3
2024-04-24T12:56:46.613Z,5.2
2024-04-24T12:58:56.779Z,4.5
2024-04-24T13:01:08.000Z,4.9
2024-04-24T13:03:18.000Z,4.3
2024-04-24T13:05:27.662Z,4.8
2024-04-24T13:07:37.448Z,4.6
2024-04-24T13:09:48.000Z,5.7
2024-04-24T13:11:57.778Z,4.8
2024-04-24T13:14:09.000Z,4.7
2024-04-24T13:16:18.497Z,5
2024-04-24T13:18:28.666Z,4
2024-04-24T13:20:38.834Z,4.4
2024-04-24T13:22:49.119Z,4.4
2024-04-24T13:25:00.000Z,4
2024-04-24T13:27:09.456Z,3.9
2024-04-24T13:29:19.623Z,3.8
2024-04-24T13:31:29.792Z,4.8
2024-04-24T13:33:39.961Z,3.8
2024-04-24T13:35:51.000Z,4.7
2024-04-24T13:38:01.000Z,4
2024-04-24T13:40:10.457Z,4
2024-04-24T13:42:21.000Z,3.8
2024-04-24T13:44:30.799Z,4.1
2024-04-24T13:46:41.000Z,4.6
2024-04-24T13:48:50.750Z,5.5
2024-04-24T13:51:01.000Z,3.9
2024-04-24T13:53:10.100Z,4.2
2024-04-24T13:55:20.661Z,4.7
2024-04-24T13:57:30.818Z,3.9
2024-04-24T13:59:40.000Z,3.8
2024-04-24T14:01:50.767Z,4.4
2024-04-24T14:04:00.935Z,4.2
2024-04-24T14:06:11.488Z,3.9
2024-04-24T14:08:21.657Z,4.3
2024-04-24T14:10:31.827Z,3.9
2024-04-24T14:12:41.990Z,4.7
2024-04-24T14:14:53.000Z,3.3
2024-04-24T14:17:02.325Z,4.8
2024-04-24T14:19:11.509Z,4.6
2024-04-24T14:21:21.676Z,3.6
2024-04-24T14:23:31.845Z,3.6
2024-04-24T14:25:42.011Z,3.8
2024-04-24T14:27:53.000Z,4
2024-04-24T14:30:02.345Z,3.9
2024-04-24T14:32:12.512Z,4.2
2024-04-24T14:34:22.288Z,4.2
2024-04-24T14:36:32.455Z,3.5
2024-04-24T14:38:42.624Z,4.4
2024-04-24T14:40:54.000Z,5.5
2024-04-24T14:43:02.960Z,3.9
2024-04-24T14:45:14.000Z,3.7
2024-04-24T14:47:22.699Z,3.9
2024-04-24T14:49:32.477Z,3.4
2024-04-24T14:51:43.037Z,4.7
2024-04-24T14:53:54.000Z,3.8
2024-04-24T14:56:03.375Z,3.6
2024-04-24T14:58:13.544Z,3.6
2024-04-24T15:00:23.708Z,3.5
2024-04-24T15:02:33.875Z,3.6
2024-04-24T15:04:44.047Z,3.7
2024-04-24T15:06:54.216Z,3.8
2024-04-24T15:09:05.000Z,2.9
2024-04-24T15:11:15.000Z,3.8
2024-04-24T15:13:24.323Z,2.8
2024-04-24T15:15:33.910Z,4.1
2024-04-24T15:17:44.074Z,3
2024-04-24T15:19:53.841Z,3.7
2024-04-24T15:22:04.408Z,3.5
2024-04-24T15:24:14.579Z,3.5
2024-04-24T15:26:24.346Z,3.7
2024-04-24T15:28:34.914Z,4.2
2024-04-24T15:30:46.000Z,3.7
2024-04-24T15:32:56.000Z,3
2024-04-24T15:35:05.000Z,2.9
2024-04-24T15:37:15.184Z,3
2024-04-24T15:39:26.000Z,3.9
2024-04-24T15:41:36.000Z,3.6
2024-04-24T15:43:45.103Z,2.8
2024-04-24T15:45:56.000Z,3.5
2024-04-24T15:48:05.000Z,2.7
2024-04-24T15:50:15.203Z,3.2
2024-04-24T15:52:26.000Z,3.5
2024-04-24T15:54:35.538Z,3.5
2024-04-24T15:56:45.128Z,4.2
2024-04-24T15:58:56.000Z,3.2
2024-04-24T16:01:05.061Z,2.9
2024-04-24T16:03:15.629Z,3
2024-04-24T16:05:25.800Z,3.2
2024-04-24T16:07:35.968Z,4.4
2024-04-24T16:09:46.131Z,3.4
2024-04-24T16:11:57.000Z,3.8
2024-04-24T16:14:07.000Z,4.4
2024-04-24T16:16:16.637Z,3.3
2024-04-24T16:18:26.812Z,3.4
2024-04-24T16:20:36.972Z,3.6
2024-04-24T16:22:48.000Z,3.2
2024-04-24T16:24:57.000Z,4.4
2024-04-24T16:27:06.494Z,4.7
2024-04-24T16:29:17.000Z,3.6
2024-04-24T16:31:26.825Z,5.2
2024-04-24T16:33:36.992Z,4.4
2024-04-24T16:35:48.000Z,5.6
2024-04-24T16:37:58.000Z,4.1
2024-04-24T16:40:07.490Z,6
2024-04-24T16:42:17.658Z,5.1
2024-04-24T16:44:27.822Z,5.6
2024-04-24T16:46:37.992Z,6
2024-04-24T16:48:49.000Z,4.4
2024-04-24T16:50:58.322Z,5.1
2024-04-24T16:53:07.516Z,5.2
2024-04-24T16:55:17.271Z,6.9
2024-04-24T16:57:27.847Z,5.4
2024-04-24T16:59:38.015Z,5.5
2024-04-24T17:01:49.000Z,5
2024-04-24T17:03:58.356Z,4.9
2024-04-24T17:06:08.517Z,5.5
2024-04-24T17:08:18.686Z,5.4
2024-04-24T17:10:28.854Z,4.7
2024-04-24T17:12:39.024Z,4.1
2024-04-24T17:14:50.000Z,4.8
2024-04-24T17:16:59.359Z,4.7
2024-04-24T17:19:09.110Z,5.2
2024-04-24T17:21:18.294Z,4.8
2024-04-24T17:23:28.879Z,4.4
2024-04-24T17:25:39.043Z,6.1
2024-04-24T17:27:50.000Z,5.4
2024-04-24T17:29:59.377Z,3.9
2024-04-24T17:32:09.550Z,4.4
2024-04-24T17:34:20.000Z,4.5
2024-04-24T17:36:29.883Z,6
2024-04-24T17:38:41.000Z,4.3
2024-04-24T17:40:49.794Z,4.6
2024-04-24T17:43:01.000Z,4.3
2024-04-24T17:45:10.126Z,4.4
2024-04-24T17:47:20.719Z,5.2
2024-04-24T17:49:30.000Z,4.5
2024-04-24T17:51:40.070Z,3.5
2024-04-24T17:53:51.000Z,4.6
2024-04-24T17:55:59.983Z,4.2
2024-04-24T17:58:10.571Z,4.2
2024-04-24T18:00:21.000Z,5.3
2024-04-24T18:02:31.000Z,4.4
2024-04-24T18:04:42.000Z,4.5
2024-04-24T18:06:50.820Z,5.1
2024-04-24T18:09:01.408Z,3.8
2024-04-24T18:11:11.568Z,4.3
2024-04-24T18:13:21.311Z,4.8
2024-04-24T18:15:31.482Z,4.3
2024-04-24T18:17:40.666Z,4
2024-04-24T18:19:52.000Z,4.8
2024-04-24T18:22:01.422Z,5.1
2024-04-24T18:24:12.000Z,5.3
2024-04-24T18:26:21.337Z,4.2
2024-04-24T18:28:31.930Z,4.7
2024-04-24T18:30:41.670Z,4.3
2024-04-24T18:32:53.000Z,4.1
2024-04-24T18:35:03.000Z,4.7
2024-04-24T18:37:12.599Z,3.5
2024-04-24T18:39:22.338Z,4.3
2024-04-24T18:41:33.000Z,3.8
2024-04-24T18:43:43.095Z,3.7
2024-04-24T18:45:52.280Z,3.8
2024-04-24T18:48:02.448Z,3.6
2024-04-24T18:50:12.189Z,4
2024-04-24T18:52:22.784Z,4.4
2024-04-24T18:54:33.000Z,4.4
2024-04-24T18:56:42.691Z,4.1
2024-04-24T18:58:53.282Z,3.8
2024-04-24T19:01:04.000Z,4.6
2024-04-24T19:03:14.000Z,3.9
2024-04-24T19:05:23.358Z,3.5
2024-04-24T19:07:34.000Z,4.1
2024-04-24T19:09:43.698Z,4.1
2024-04-24T19:11:55.000Z,4.1
2024-04-24T19:14:03.473Z,3.7
2024-04-24T19:16:13.647Z,3.4
2024-04-24T19:18:23.813Z,4
2024-04-24T19:20:33.547Z,3.9
2024-04-24T19:22:45.000Z,3.9
2024-04-24T19:24:53.880Z,4.2
2024-04-24T19:27:04.482Z,4.5
2024-04-24T19:29:15.000Z,3.2
2024-04-24T19:31:24.812Z,3.4
2024-04-24T19:33:34.984Z,4.1
2024-04-24T19:35:46.000Z,4
2024-04-24T19:37:56.000Z,4.8
2024-04-24T19:40:06.000Z,3.5
2024-04-24T19:42:14.668Z,4.1
2024-04-24T19:44:24.837Z,3.7
2024-04-24T19:46:35.000Z,21.9
2024-04-24T19:48:46.000Z,15.6
2024-04-24T19:50:56.000Z,13.8
2024-04-24T19:53:05.066Z,11.6
2024-04-24T19:55:16.000Z,10.7
2024-04-24T19:57:25.837Z,9.7
2024-04-24T19:59:36.003Z,8.4
2024-04-24T20:01:47.000Z,18.5
2024-04-24T20:03:56.333Z,16.8
2024-04-24T20:06:07.000Z,14
2024-04-24T20:08:16.233Z,13.1
2024-04-24T20:10:25.852Z,13.1
2024-04-24T20:12:36.025Z,12.5
2024-04-24T20:14:47.000Z,12.4
2024-04-24T20:16:56.357Z,11
2024-04-24T20:19:06.519Z,10.3
2024-04-24T20:21:17.000Z,9.8
2024-04-24T20:23:26.851Z,8.1
2024-04-24T20:25:37.025Z,10.1
2024-04-24T20:27:47.187Z,9
2024-04-24T20:29:58.000Z,7.2
2024-04-24T20:32:07.519Z,9.2
2024-04-24T20:34:17.686Z,7.1
2024-04-24T20:36:27.861Z,7
2024-04-24T20:38:36.601Z,6.9
2024-04-24T20:40:48.000Z,7.1
2024-04-24T20:42:58.000Z,6.6
2024-04-24T20:45:07.101Z,6.7
2024-04-24T20:47:17.712Z,8.2
2024-04-24T20:49:28.000Z,7.2
2024-04-24T20:51:39.000Z,5.8
2024-04-24T20:53:48.212Z,6.2
2024-04-24T20:55:58.381Z,6.9
2024-04-24T20:58:09.000Z,5.4
2024-04-24T21:00:18.715Z,5.8
2024-04-24T21:02:29.000Z,5.5
2024-04-24T21:04:39.052Z,5.7
2024-04-24T21:06:49.000Z,5
2024-04-24T21:08:58.405Z,5.1
2024-04-24T21:11:08.572Z,5.6
2024-04-24T21:13:18.294Z,6
2024-04-24T21:15:28.463Z,6.2
2024-04-24T21:17:40.000Z,5.5
2024-04-24T21:19:49.247Z,5
2024-04-24T21:21:59.409Z,4.3
2024-04-24T21:24:09.129Z,4.5
2024-04-24T21:26:19.744Z,6.4
2024-04-24T21:28:29.908Z,5.5
2024-04-24T21:30:39.632Z,5.7
2024-04-24T21:32:50.244Z,5.6
2024-04-24T21:34:59.432Z,4.4
2024-04-24T21:37:09.596Z,4.1
2024-04-24T21:39:20.000Z,4.4
2024-04-24T21:41:29.931Z,4.9
2024-04-24T21:43:40.100Z,4.8
2024-04-24T21:45:51.000Z,5
2024-04-24T21:48:00.439Z,4
2024-04-24T21:50:11.000Z,4
2024-04-24T21:52:20.324Z,4
2024-04-24T21:54:31.000Z,3.9
2024-04-24T21:56:41.112Z,3.9
2024-04-24T21:58:52.000Z,4.5
2024-04-24T22:01:01.449Z,3.6
2024-04-24T22:03:11.000Z,3.9
2024-04-24T22:05:20.352Z,4.9
2024-04-24T22:07:30.967Z,4.4
2024-04-24T22:09:41.130Z,4.3
2024-04-24T22:11:51.296Z,4.3
2024-04-24T22:14:01.468Z,4.1
2024-04-24T22:16:11.634Z,3.7
2024-04-24T22:18:21.804Z,3.7
2024-04-24T22:20:31.970Z,3.5
2024-04-24T22:22:43.000Z,3.5
2024-04-24T22:24:52.303Z,3.1
2024-04-24T22:27:02.466Z,3.7
2024-04-24T22:29:12.182Z,3.8
2024-04-24T22:31:21.821Z,3.6
2024-04-24T22:33:32.000Z,3.6
2024-04-24T22:35:43.000Z,3
2024-04-24T22:37:52.329Z,3.2
2024-04-24T22:40:02.500Z,4
2024-04-24T22:42:12.662Z,4.3
2024-04-24T22:44:22.826Z,3.5
2024-04-24T22:46:32.996Z,3.7
2024-04-24T22:48:43.162Z,3.2
2024-04-24T22:50:52.876Z,3.8
2024-04-24T22:53:03.495Z,2.5
2024-04-24T22:55:13.666Z,3.1
2024-04-24T22:57:23.836Z,2.8
2024-04-24T22:59:35.000Z,2.9
2024-04-24T23:01:44.287Z,3.4
2024-04-24T23:03:54.457Z,3.4
2024-04-24T23:06:04.627Z,3
2024-04-24T23:08:15.000Z,3.3
2024-04-24T23:10:25.000Z,3.6
2024-04-24T23:12:35.000Z,2.8
2024-04-24T23:14:44.325Z,3.3
2024-04-24T23:16:55.000Z,3.3
2024-04-24T23:19:04.657Z,2.4
2024-04-24T23:21:14.826Z,2.4
2024-04-24T23:23:24.988Z,3.5
2024-04-24T23:25:36.000Z,2.8
2024-04-24T23:27:44.857Z,3.6
2024-04-24T23:29:55.485Z,3.1
2024-04-24T23:32:05.656Z,2.7
2024-04-24T23:34:15.820Z,3
2024-04-24T23:36:25.988Z,2.9
2024-04-24T23:38:37.000Z,2.9
2024-04-24T23:40:45.344Z,2.4
2024-04-24T23:42:55.510Z,2.7
2024-04-24T23:45:05.679Z,2.8
2024-04-24T23:47:15.847Z,2.3
2024-04-24T23:49:26.015Z,2.8
2024-04-24T23:51:36.179Z,2.7
2024-04-24T23:53:46.347Z,2.9
2024-04-24T23:55:57.000Z,3.1
2024-04-24T23:58:06.685Z,2.9
